Share

Yalta, Ukraine

5:31 AM EEST on April 24, 2014 (GMT +0300)
Simferopol' (UKFF) Elev 610 ft | 45.03 °N, 33.98 °E | Change Station

Current weather conditions updated 31 minutes ago

Clear
Clear
48 °F
Feels Like 48 °F
N
7
Wind Variable Wind from ESE
Sunrise 5:44 AM
Sunset 7:38 PM
Moon Waning Crescent

Today is forecast to be Cooler than yesterday.

Pressure 30.06 in
Visibility -9999.0 miles
Clouds
Dew Point 45 °F
Humidity 87%
Rainfall 0.00 in
Snow Depth Not available.
UV Not available.
Pollen Not available.
Air Quality Not available.
Flu Activity Not available.
METAR UKFF 240200Z 12003MPS CAVOK 09/07 Q1018 19010065 NOSIG

More Conditions Fewer Conditions

Pressure 30.06 in
Visibility -9999.0 miles
Clouds
Dew Point 45 °F
Humidity 87%
Rainfall 0.00 in
Snow Depth Not available.
UV Not available.
Pollen Not available.
Air Quality Not available.
Flu Activity Not available.
METAR UKFF 240200Z 12003MPS CAVOK 09/07 Q1018 19010065 NOSIG

More Conditions Fewer Conditions

10-Day Weather Forecast

Almanac

Astronomy

Apr. 24, 2014 Rise Set
Actual Time 5:44 AM EEST 7:38 PM EEST
Civil Twilight 5:13 AM EEST 8:10 PM EEST
Nautical Twilight 4:35 AM EEST 8:48 PM EEST
Astronomical Twilight 3:54 AM EEST 9:30 PM EEST
Moon 2:55 AM EEST 2:19 PM EEST
Length of Visible Light 14h 56m
Length of Day
13h 53m
Tomorrow will be 2m 49s longer.
Waning Crescent, 30% of the Moon is Illuminated
Apr 23
Waning Crescent
Apr 29
New
May 6
First Quarter
May 14
Full
May 21
Last Quarter

Yesterday's Extremes

Country Highs Country Lows

Community

  • Nestled In
    Nestled In
  • Stunning Sunrise
    Stunning Sunrise
  • spring flowers
    spring flowers
  • Earth Day Spectrum Ove' Blue
    Earth Day Spectrum Ove' Blue
  • BARN B&W
    BARN B&W

WunderPhotos

Upload Photos

1,704,516 photos uploaded!

WunderBlogs® & News

Nearby

Snow Depth

Not available.

Coastal Water Temperatures

Place Temperature
No Stations Reporting

Earthquake Activity

City Distance Mag. Time & Date
No recent earthquake activity has been reported nearby.
Minimum magnitude displayed is 2.5.

Nearby Weather Stations

There are no personal weather stations in this area.

What do you think?

We're not finished. Please let us know what you like, what you don't like, and what you are still missing.